sensor_id;sensor_type;location;lat;lon;timestamp;P1;durP1;ratioP1;P2;durP2;ratioP2
81487;SDS011;70897;52.464;13.428;2024-02-26T00:01:31;19.70;;;12.77;;
81487;SDS011;70897;52.464;13.428;2024-02-26T00:04:17;19.67;;;12.60;;
81487;SDS011;70897;52.464;13.428;2024-02-26T00:07:02;20.92;;;12.32;;
81487;SDS011;70897;52.464;13.428;2024-02-26T00:09:48;18.63;;;11.75;;
81487;SDS011;70897;52.464;13.428;2024-02-26T00:12:33;22.33;;;12.13;;
81487;SDS011;70897;52.464;13.428;2024-02-26T00:15:18;18.65;;;11.55;;
81487;SDS011;70897;52.464;13.428;2024-02-26T00:18:03;17.40;;;10.85;;
81487;SDS011;70897;52.464;13.428;2024-02-26T00:20:48;17.92;;;11.35;;
81487;SDS011;70897;52.464;13.428;2024-02-26T00:23:33;16.52;;;11.27;;
81487;SDS011;70897;52.464;13.428;2024-02-26T00:26:18;20.15;;;12.18;;
81487;SDS011;70897;52.464;13.428;2024-02-26T00:29:03;19.73;;;11.13;;
81487;SDS011;70897;52.464;13.428;2024-02-26T00:31:48;19.15;;;11.48;;
81487;SDS011;70897;52.464;13.428;2024-02-26T00:34:33;19.83;;;11.82;;
81487;SDS011;70897;52.464;13.428;2024-02-26T00:37:18;21.00;;;11.52;;
81487;SDS011;70897;52.464;13.428;2024-02-26T00:40:04;18.75;;;12.43;;
81487;SDS011;70897;52.464;13.428;2024-02-26T00:42:49;17.95;;;12.02;;
81487;SDS011;70897;52.464;13.428;2024-02-26T00:45:34;20.55;;;12.95;;
81487;SDS011;70897;52.464;13.428;2024-02-26T00:48:19;19.45;;;12.10;;
81487;SDS011;70897;52.464;13.428;2024-02-26T00:51:04;17.50;;;11.68;;
81487;SDS011;70897;52.464;13.428;2024-02-26T00:53:49;17.70;;;12.18;;
81487;SDS011;70897;52.464;13.428;2024-02-26T00:56:34;20.00;;;13.30;;
81487;SDS011;70897;52.464;13.428;2024-02-26T00:59:19;19.33;;;12.60;;
81487;SDS011;70897;52.464;13.428;2024-02-26T01:02:04;18.63;;;12.68;;
81487;SDS011;70897;52.464;13.428;2024-02-26T01:04:51;18.55;;;11.50;;
81487;SDS011;70897;52.464;13.428;2024-02-26T01:07:36;18.40;;;12.18;;
81487;SDS011;70897;52.464;13.428;2024-02-26T01:10:21;19.20;;;12.15;;
81487;SDS011;70897;52.464;13.428;2024-02-26T01:13:07;19.92;;;12.70;;
81487;SDS011;70897;52.464;13.428;2024-02-26T01:15:52;17.45;;;11.45;;
81487;SDS011;70897;52.464;13.428;2024-02-26T01:18:37;18.80;;;11.48;;
81487;SDS011;70897;52.464;13.428;2024-02-26T01:21:22;19.55;;;12.23;;
81487;SDS011;70897;52.464;13.428;2024-02-26T01:24:07;17.52;;;12.07;;
81487;SDS011;70897;52.464;13.428;2024-02-26T01:26:52;19.15;;;11.18;;
81487;SDS011;70897;52.464;13.428;2024-02-26T01:29:37;18.15;;;11.35;;
81487;SDS011;70897;52.464;13.428;2024-02-26T01:32:23;17.23;;;12.13;;
81487;SDS011;70897;52.464;13.428;2024-02-26T01:35:08;22.40;;;12.80;;
81487;SDS011;70897;52.464;13.428;2024-02-26T01:37:55;19.42;;;12.48;;
81487;SDS011;70897;52.464;13.428;2024-02-26T01:40:40;19.90;;;11.75;;
81487;SDS011;70897;52.464;13.428;2024-02-26T01:43:25;16.67;;;12.10;;
81487;SDS011;70897;52.464;13.428;2024-02-26T01:46:11;17.17;;;10.88;;
81487;SDS011;70897;52.464;13.428;2024-02-26T01:48:58;16.00;;;11.00;;
81487;SDS011;70897;52.464;13.428;2024-02-26T01:51:45;15.75;;;11.48;;
81487;SDS011;70897;52.464;13.428;2024-02-26T01:54:30;15.85;;;10.75;;
81487;SDS011;70897;52.464;13.428;2024-02-26T01:57:15;15.77;;;11.15;;
81487;SDS011;70897;52.464;13.428;2024-02-26T02:00:01;18.15;;;11.55;;
81487;SDS011;70897;52.464;13.428;2024-02-26T02:02:50;15.95;;;10.82;;
81487;SDS011;70897;52.464;13.428;2024-02-26T02:05:35;17.80;;;10.85;;
81487;SDS011;70897;52.464;13.428;2024-02-26T02:08:26;17.20;;;10.32;;
81487;SDS011;70897;52.464;13.428;2024-02-26T02:11:12;17.58;;;10.73;;
81487;SDS011;70897;52.464;13.428;2024-02-26T02:13:59;15.10;;;9.55;;
81487;SDS011;70897;52.464;13.428;2024-02-26T02:16:44;15.15;;;9.98;;
81487;SDS011;70897;52.464;13.428;2024-02-26T02:19:29;12.70;;;8.73;;
81487;SDS011;70897;52.464;13.428;2024-02-26T02:22:14;14.63;;;10.27;;
81487;SDS011;70897;52.464;13.428;2024-02-26T02:24:59;13.68;;;8.90;;
81487;SDS011;70897;52.464;13.428;2024-02-26T02:27:44;14.32;;;8.98;;
81487;SDS011;70897;52.464;13.428;2024-02-26T02:30:30;13.57;;;8.90;;
81487;SDS011;70897;52.464;13.428;2024-02-26T02:33:17;12.70;;;9.63;;
81487;SDS011;70897;52.464;13.428;2024-02-26T02:36:02;12.07;;;9.18;;
81487;SDS011;70897;52.464;13.428;2024-02-26T02:38:48;12.38;;;8.93;;
81487;SDS011;70897;52.464;13.428;2024-02-26T02:41:35;15.38;;;9.85;;
81487;SDS011;70897;52.464;13.428;2024-02-26T02:44:20;13.73;;;9.73;;
81487;SDS011;70897;52.464;13.428;2024-02-26T02:47:05;13.48;;;9.68;;
81487;SDS011;70897;52.464;13.428;2024-02-26T02:49:50;16.95;;;10.55;;
81487;SDS011;70897;52.464;13.428;2024-02-26T02:52:35;15.00;;;10.18;;
81487;SDS011;70897;52.464;13.428;2024-02-26T02:55:20;14.77;;;9.95;;
81487;SDS011;70897;52.464;13.428;2024-02-26T02:58:05;15.07;;;10.55;;
81487;SDS011;70897;52.464;13.428;2024-02-26T03:00:50;16.23;;;10.43;;
81487;SDS011;70897;52.464;13.428;2024-02-26T03:03:35;15.45;;;10.25;;
81487;SDS011;70897;52.464;13.428;2024-02-26T03:06:21;14.15;;;10.23;;
81487;SDS011;70897;52.464;13.428;2024-02-26T03:09:06;15.07;;;10.82;;
81487;SDS011;70897;52.464;13.428;2024-02-26T03:11:51;13.95;;;10.18;;
81487;SDS011;70897;52.464;13.428;2024-02-26T03:14:36;14.95;;;10.35;;
81487;SDS011;70897;52.464;13.428;2024-02-26T03:17:21;16.02;;;10.05;;
81487;SDS011;70897;52.464;13.428;2024-02-26T03:20:08;15.73;;;10.73;;
81487;SDS011;70897;52.464;13.428;2024-02-26T03:22:54;17.13;;;10.30;;
81487;SDS011;70897;52.464;13.428;2024-02-26T03:25:39;14.55;;;10.02;;
81487;SDS011;70897;52.464;13.428;2024-02-26T03:28:24;13.80;;;10.13;;
81487;SDS011;70897;52.464;13.428;2024-02-26T03:31:09;17.35;;;10.73;;
81487;SDS011;70897;52.464;13.428;2024-02-26T03:33:55;13.82;;;10.35;;
81487;SDS011;70897;52.464;13.428;2024-02-26T03:36:40;14.55;;;10.57;;
81487;SDS011;70897;52.464;13.428;2024-02-26T03:39:26;14.30;;;10.38;;
81487;SDS011;70897;52.464;13.428;2024-02-26T03:42:11;33.33;;;11.50;;
81487;SDS011;70897;52.464;13.428;2024-02-26T03:44:56;15.80;;;10.50;;
81487;SDS011;70897;52.464;13.428;2024-02-26T03:47:41;13.77;;;10.10;;
81487;SDS011;70897;52.464;13.428;2024-02-26T03:50:26;17.40;;;11.02;;
81487;SDS011;70897;52.464;13.428;2024-02-26T03:53:11;15.52;;;10.38;;
81487;SDS011;70897;52.464;13.428;2024-02-26T03:55:57;15.88;;;10.85;;
81487;SDS011;70897;52.464;13.428;2024-02-26T03:58:42;19.15;;;12.00;;
81487;SDS011;70897;52.464;13.428;2024-02-26T04:01:27;18.65;;;12.05;;
81487;SDS011;70897;52.464;13.428;2024-02-26T04:04:12;17.98;;;11.23;;
81487;SDS011;70897;52.464;13.428;2024-02-26T04:06:57;19.08;;;12.32;;
81487;SDS011;70897;52.464;13.428;2024-02-26T04:09:42;18.02;;;11.55;;
81487;SDS011;70897;52.464;13.428;2024-02-26T04:12:27;16.52;;;11.35;;
81487;SDS011;70897;52.464;13.428;2024-02-26T04:15:12;15.10;;;10.93;;
81487;SDS011;70897;52.464;13.428;2024-02-26T04:17:57;17.98;;;11.70;;
81487;SDS011;70897;52.464;13.428;2024-02-26T04:20:42;19.23;;;11.77;;
81487;SDS011;70897;52.464;13.428;2024-02-26T04:23:27;17.30;;;12.00;;
81487;SDS011;70897;52.464;13.428;2024-02-26T04:26:13;16.88;;;11.45;;
81487;SDS011;70897;52.464;13.428;2024-02-26T04:28:58;14.93;;;11.32;;
81487;SDS011;70897;52.464;13.428;2024-02-26T04:31:43;18.77;;;11.80;;
81487;SDS011;70897;52.464;13.428;2024-02-26T04:34:30;17.88;;;11.38;;
81487;SDS011;70897;52.464;13.428;2024-02-26T04:37:15;17.67;;;11.27;;
81487;SDS011;70897;52.464;13.428;2024-02-26T04:40:00;17.02;;;11.45;;
81487;SDS011;70897;52.464;13.428;2024-02-26T04:42:45;18.02;;;11.85;;
81487;SDS011;70897;52.464;13.428;2024-02-26T04:45:31;18.17;;;12.00;;
81487;SDS011;70897;52.464;13.428;2024-02-26T04:48:15;18.42;;;12.52;;
81487;SDS011;70897;52.464;13.428;2024-02-26T04:51:01;23.23;;;12.75;;
81487;SDS011;70897;52.464;13.428;2024-02-26T04:53:46;19.85;;;13.20;;
81487;SDS011;70897;52.464;13.428;2024-02-26T04:56:31;20.15;;;12.38;;
81487;SDS011;70897;52.464;13.428;2024-02-26T04:59:16;19.92;;;13.85;;
81487;SDS011;70897;52.464;13.428;2024-02-26T05:02:01;22.45;;;14.73;;
81487;SDS011;70897;52.464;13.428;2024-02-26T05:04:46;22.88;;;14.50;;
81487;SDS011;70897;52.464;13.428;2024-02-26T05:07:31;23.45;;;13.90;;
81487;SDS011;70897;52.464;13.428;2024-02-26T05:10:17;23.00;;;13.82;;
81487;SDS011;70897;52.464;13.428;2024-02-26T05:13:02;22.15;;;13.25;;
81487;SDS011;70897;52.464;13.428;2024-02-26T05:15:47;20.23;;;12.88;;
81487;SDS011;70897;52.464;13.428;2024-02-26T05:18:33;23.38;;;14.38;;
81487;SDS011;70897;52.464;13.428;2024-02-26T05:21:18;21.05;;;14.48;;
81487;SDS011;70897;52.464;13.428;2024-02-26T05:24:03;23.85;;;15.65;;
81487;SDS011;70897;52.464;13.428;2024-02-26T05:26:49;27.25;;;15.82;;
81487;SDS011;70897;52.464;13.428;2024-02-26T05:29:34;28.13;;;15.32;;
81487;SDS011;70897;52.464;13.428;2024-02-26T05:32:19;28.67;;;16.48;;
81487;SDS011;70897;52.464;13.428;2024-02-26T05:35:04;26.58;;;16.55;;
81487;SDS011;70897;52.464;13.428;2024-02-26T05:37:49;26.00;;;16.17;;
81487;SDS011;70897;52.464;13.428;2024-02-26T05:40:34;22.05;;;15.65;;
81487;SDS011;70897;52.464;13.428;2024-02-26T05:43:19;26.52;;;16.35;;
81487;SDS011;70897;52.464;13.428;2024-02-26T05:46:04;27.20;;;17.05;;
81487;SDS011;70897;52.464;13.428;2024-02-26T05:48:50;28.75;;;17.65;;
81487;SDS011;70897;52.464;13.428;2024-02-26T05:51:36;28.13;;;17.33;;
81487;SDS011;70897;52.464;13.428;2024-02-26T05:54:21;26.27;;;17.65;;
81487;SDS011;70897;52.464;13.428;2024-02-26T05:57:06;33.42;;;18.75;;
81487;SDS011;70897;52.464;13.428;2024-02-26T05:59:51;26.50;;;16.77;;
81487;SDS011;70897;52.464;13.428;2024-02-26T06:02:36;23.92;;;16.25;;
81487;SDS011;70897;52.464;13.428;2024-02-26T06:05:21;27.70;;;16.50;;
81487;SDS011;70897;52.464;13.428;2024-02-26T06:08:06;26.80;;;16.90;;
81487;SDS011;70897;52.464;13.428;2024-02-26T06:10:51;29.83;;;17.35;;
81487;SDS011;70897;52.464;13.428;2024-02-26T06:13:36;26.58;;;16.23;;
81487;SDS011;70897;52.464;13.428;2024-02-26T06:16:21;28.25;;;17.23;;
81487;SDS011;70897;52.464;13.428;2024-02-26T06:19:06;27.83;;;16.73;;
81487;SDS011;70897;52.464;13.428;2024-02-26T06:21:52;25.15;;;16.38;;
81487;SDS011;70897;52.464;13.428;2024-02-26T06:24:37;25.10;;;16.08;;
81487;SDS011;70897;52.464;13.428;2024-02-26T06:27:22;24.10;;;15.90;;
81487;SDS011;70897;52.464;13.428;2024-02-26T06:30:08;30.27;;;17.13;;
81487;SDS011;70897;52.464;13.428;2024-02-26T06:32:55;26.20;;;16.67;;
81487;SDS011;70897;52.464;13.428;2024-02-26T06:35:40;24.60;;;15.77;;
81487;SDS011;70897;52.464;13.428;2024-02-26T06:38:25;23.17;;;15.93;;
81487;SDS011;70897;52.464;13.428;2024-02-26T06:41:11;26.73;;;15.00;;
81487;SDS011;70897;52.464;13.428;2024-02-26T06:43:56;22.98;;;14.88;;
81487;SDS011;70897;52.464;13.428;2024-02-26T06:46:41;19.70;;;13.02;;
81487;SDS011;70897;52.464;13.428;2024-02-26T06:49:26;25.17;;;12.95;;
81487;SDS011;70897;52.464;13.428;2024-02-26T06:52:11;14.77;;;11.40;;
81487;SDS011;70897;52.464;13.428;2024-02-26T06:54:57;16.90;;;11.70;;
81487;SDS011;70897;52.464;13.428;2024-02-26T06:57:42;17.23;;;11.23;;
81487;SDS011;70897;52.464;13.428;2024-02-26T07:00:27;18.65;;;11.63;;
81487;SDS011;70897;52.464;13.428;2024-02-26T07:03:12;18.15;;;11.88;;
81487;SDS011;70897;52.464;13.428;2024-02-26T07:05:58;16.60;;;11.18;;
81487;SDS011;70897;52.464;13.428;2024-02-26T07:08:43;20.27;;;12.05;;
81487;SDS011;70897;52.464;13.428;2024-02-26T07:11:28;17.85;;;11.75;;
81487;SDS011;70897;52.464;13.428;2024-02-26T07:14:13;15.35;;;10.75;;
81487;SDS011;70897;52.464;13.428;2024-02-26T07:16:58;18.00;;;11.48;;
81487;SDS011;70897;52.464;13.428;2024-02-26T07:19:43;14.27;;;10.50;;
81487;SDS011;70897;52.464;13.428;2024-02-26T07:22:28;16.23;;;10.55;;
81487;SDS011;70897;52.464;13.428;2024-02-26T07:25:13;14.43;;;10.90;;
81487;SDS011;70897;52.464;13.428;2024-02-26T07:27:58;14.98;;;10.57;;
81487;SDS011;70897;52.464;13.428;2024-02-26T07:30:43;19.02;;;11.80;;
81487;SDS011;70897;52.464;13.428;2024-02-26T07:33:28;17.15;;;11.45;;
81487;SDS011;70897;52.464;13.428;2024-02-26T07:36:14;17.60;;;11.52;;
81487;SDS011;70897;52.464;13.428;2024-02-26T07:38:59;18.10;;;12.15;;
81487;SDS011;70897;52.464;13.428;2024-02-26T07:41:44;18.38;;;11.82;;
81487;SDS011;70897;52.464;13.428;2024-02-26T07:44:31;16.50;;;11.45;;
81487;SDS011;70897;52.464;13.428;2024-02-26T07:47:17;17.85;;;11.43;;
81487;SDS011;70897;52.464;13.428;2024-02-26T07:50:03;14.85;;;11.50;;
81487;SDS011;70897;52.464;13.428;2024-02-26T07:52:49;16.33;;;11.25;;
81487;SDS011;70897;52.464;13.428;2024-02-26T07:55:35;17.77;;;12.35;;
81487;SDS011;70897;52.464;13.428;2024-02-26T07:58:20;18.63;;;12.45;;
81487;SDS011;70897;52.464;13.428;2024-02-26T08:01:06;18.70;;;12.65;;
81487;SDS011;70897;52.464;13.428;2024-02-26T08:03:51;20.15;;;13.52;;
81487;SDS011;70897;52.464;13.428;2024-02-26T08:06:37;20.70;;;13.40;;
81487;SDS011;70897;52.464;13.428;2024-02-26T08:09:22;22.25;;;13.95;;
81487;SDS011;70897;52.464;13.428;2024-02-26T08:12:08;21.05;;;14.25;;
81487;SDS011;70897;52.464;13.428;2024-02-26T08:14:53;23.17;;;14.60;;
81487;SDS011;70897;52.464;13.428;2024-02-26T08:17:38;24.50;;;14.68;;
81487;SDS011;70897;52.464;13.428;2024-02-26T08:20:23;20.33;;;14.50;;
81487;SDS011;70897;52.464;13.428;2024-02-26T08:23:08;20.30;;;13.80;;
81487;SDS011;70897;52.464;13.428;2024-02-26T08:25:53;23.63;;;14.02;;
81487;SDS011;70897;52.464;13.428;2024-02-26T08:28:38;24.15;;;14.27;;
81487;SDS011;70897;52.464;13.428;2024-02-26T08:31:23;23.23;;;14.20;;
81487;SDS011;70897;52.464;13.428;2024-02-26T08:34:08;23.05;;;14.70;;
81487;SDS011;70897;52.464;13.428;2024-02-26T08:36:53;25.25;;;14.23;;
81487;SDS011;70897;52.464;13.428;2024-02-26T08:39:38;32.72;;;18.73;;
81487;SDS011;70897;52.464;13.428;2024-02-26T08:42:24;24.63;;;14.93;;
81487;SDS011;70897;52.464;13.428;2024-02-26T08:45:09;19.23;;;13.90;;
81487;SDS011;70897;52.464;13.428;2024-02-26T08:47:54;21.27;;;14.52;;
81487;SDS011;70897;52.464;13.428;2024-02-26T08:50:39;24.00;;;14.93;;
81487;SDS011;70897;52.464;13.428;2024-02-26T08:53:24;19.70;;;13.77;;
81487;SDS011;70897;52.464;13.428;2024-02-26T08:56:11;23.55;;;14.30;;
81487;SDS011;70897;52.464;13.428;2024-02-26T08:59:00;19.08;;;14.02;;
81487;SDS011;70897;52.464;13.428;2024-02-26T09:01:47;21.30;;;13.75;;
81487;SDS011;70897;52.464;13.428;2024-02-26T09:04:32;20.80;;;13.75;;
81487;SDS011;70897;52.464;13.428;2024-02-26T09:07:18;21.38;;;14.52;;
81487;SDS011;70897;52.464;13.428;2024-02-26T09:10:03;19.13;;;13.10;;
81487;SDS011;70897;52.464;13.428;2024-02-26T09:12:49;18.75;;;13.65;;
81487;SDS011;70897;52.464;13.428;2024-02-26T09:15:35;21.38;;;13.80;;
81487;SDS011;70897;52.464;13.428;2024-02-26T09:18:20;23.83;;;14.15;;
81487;SDS011;70897;52.464;13.428;2024-02-26T09:21:05;24.75;;;14.63;;
81487;SDS011;70897;52.464;13.428;2024-02-26T09:23:50;21.83;;;13.90;;
81487;SDS011;70897;52.464;13.428;2024-02-26T09:26:35;18.75;;;13.93;;
81487;SDS011;70897;52.464;13.428;2024-02-26T09:29:21;21.83;;;15.13;;
81487;SDS011;70897;52.464;13.428;2024-02-26T09:32:06;21.45;;;14.43;;
81487;SDS011;70897;52.464;13.428;2024-02-26T09:34:51;19.75;;;13.52;;
81487;SDS011;70897;52.464;13.428;2024-02-26T09:37:36;18.20;;;13.07;;
81487;SDS011;70897;52.464;13.428;2024-02-26T09:40:22;20.00;;;12.82;;
81487;SDS011;70897;52.464;13.428;2024-02-26T09:43:07;20.42;;;13.00;;
81487;SDS011;70897;52.464;13.428;2024-02-26T09:45:58;19.60;;;13.00;;
81487;SDS011;70897;52.464;13.428;2024-02-26T09:48:44;17.05;;;11.82;;
81487;SDS011;70897;52.464;13.428;2024-02-26T09:51:29;16.08;;;12.00;;
81487;SDS011;70897;52.464;13.428;2024-02-26T09:54:16;15.32;;;11.15;;
81487;SDS011;70897;52.464;13.428;2024-02-26T09:57:02;17.90;;;12.05;;
81487;SDS011;70897;52.464;13.428;2024-02-26T09:59:51;19.25;;;11.43;;
81487;SDS011;70897;52.464;13.428;2024-02-26T10:02:38;19.50;;;11.23;;
81487;SDS011;70897;52.464;13.428;2024-02-26T10:05:24;15.50;;;11.00;;
81487;SDS011;70897;52.464;13.428;2024-02-26T10:08:10;16.08;;;11.45;;
81487;SDS011;70897;52.464;13.428;2024-02-26T10:10:57;22.42;;;15.07;;
81487;SDS011;70897;52.464;13.428;2024-02-26T10:13:42;16.83;;;10.52;;
81487;SDS011;70897;52.464;13.428;2024-02-26T10:16:27;14.73;;;10.57;;
81487;SDS011;70897;52.464;13.428;2024-02-26T10:19:24;16.95;;;11.20;;
81487;SDS011;70897;52.464;13.428;2024-02-26T10:22:14;15.23;;;10.90;;
81487;SDS011;70897;52.464;13.428;2024-02-26T10:24:59;13.45;;;10.00;;
81487;SDS011;70897;52.464;13.428;2024-02-26T10:27:45;19.25;;;10.65;;
81487;SDS011;70897;52.464;13.428;2024-02-26T10:30:31;12.85;;;9.15;;
81487;SDS011;70897;52.464;13.428;2024-02-26T10:33:16;13.65;;;9.75;;
81487;SDS011;70897;52.464;13.428;2024-02-26T10:36:08;13.82;;;9.38;;
81487;SDS011;70897;52.464;13.428;2024-02-26T10:38:56;13.93;;;9.70;;
81487;SDS011;70897;52.464;13.428;2024-02-26T10:41:42;13.80;;;9.88;;
81487;SDS011;70897;52.464;13.428;2024-02-26T10:44:28;15.55;;;9.95;;
81487;SDS011;70897;52.464;13.428;2024-02-26T10:47:13;14.60;;;9.02;;
81487;SDS011;70897;52.464;13.428;2024-02-26T10:50:00;13.07;;;8.43;;
81487;SDS011;70897;52.464;13.428;2024-02-26T10:52:47;10.98;;;8.00;;
81487;SDS011;70897;52.464;13.428;2024-02-26T10:55:32;12.38;;;8.32;;
81487;SDS011;70897;52.464;13.428;2024-02-26T10:58:19;11.43;;;8.23;;
81487;SDS011;70897;52.464;13.428;2024-02-26T11:01:06;12.93;;;8.45;;
81487;SDS011;70897;52.464;13.428;2024-02-26T11:03:52;14.02;;;8.48;;
81487;SDS011;70897;52.464;13.428;2024-02-26T11:06:38;16.60;;;9.88;;
81487;SDS011;70897;52.464;13.428;2024-02-26T11:09:23;11.25;;;7.40;;
81487;SDS011;70897;52.464;13.428;2024-02-26T11:12:13;12.23;;;7.50;;
81487;SDS011;70897;52.464;13.428;2024-02-26T11:14:58;10.45;;;7.45;;
81487;SDS011;70897;52.464;13.428;2024-02-26T11:17:46;10.88;;;7.40;;
81487;SDS011;70897;52.464;13.428;2024-02-26T11:20:32;11.77;;;7.88;;
81487;SDS011;70897;52.464;13.428;2024-02-26T11:23:18;11.35;;;7.45;;
81487;SDS011;70897;52.464;13.428;2024-02-26T11:26:19;10.60;;;7.30;;
81487;SDS011;70897;52.464;13.428;2024-02-26T11:29:08;11.98;;;7.07;;
81487;SDS011;70897;52.464;13.428;2024-02-26T11:31:55;9.98;;;6.72;;
81487;SDS011;70897;52.464;13.428;2024-02-26T11:34:40;10.15;;;6.65;;
81487;SDS011;70897;52.464;13.428;2024-02-26T11:37:27;9.73;;;7.05;;
81487;SDS011;70897;52.464;13.428;2024-02-26T11:40:12;10.90;;;7.43;;
81487;SDS011;70897;52.464;13.428;2024-02-26T11:42:58;15.55;;;8.80;;
81487;SDS011;70897;52.464;13.428;2024-02-26T11:45:47;13.20;;;7.82;;
81487;SDS011;70897;52.464;13.428;2024-02-26T11:48:34;11.20;;;7.80;;
81487;SDS011;70897;52.464;13.428;2024-02-26T11:51:23;10.98;;;8.18;;
81487;SDS011;70897;52.464;13.428;2024-02-26T11:54:10;13.35;;;8.23;;
81487;SDS011;70897;52.464;13.428;2024-02-26T11:56:55;10.48;;;7.93;;
81487;SDS011;70897;52.464;13.428;2024-02-26T11:59:44;14.95;;;8.95;;
81487;SDS011;70897;52.464;13.428;2024-02-26T12:05:30;12.50;;;7.57;;
81487;SDS011;70897;52.464;13.428;2024-02-26T12:08:17;13.65;;;8.30;;
81487;SDS011;70897;52.464;13.428;2024-02-26T12:11:14;9.68;;;7.20;;
81487;SDS011;70897;52.464;13.428;2024-02-26T12:14:00;9.50;;;7.15;;
81487;SDS011;70897;52.464;13.428;2024-02-26T12:16:45;10.13;;;6.70;;
81487;SDS011;70897;52.464;13.428;2024-02-26T12:19:30;11.40;;;7.80;;
81487;SDS011;70897;52.464;13.428;2024-02-26T12:22:16;11.40;;;7.30;;
81487;SDS011;70897;52.464;13.428;2024-02-26T12:25:01;11.00;;;6.95;;
81487;SDS011;70897;52.464;13.428;2024-02-26T12:27:47;10.52;;;7.00;;
81487;SDS011;70897;52.464;13.428;2024-02-26T12:30:33;10.90;;;8.02;;
81487;SDS011;70897;52.464;13.428;2024-02-26T12:33:19;10.77;;;7.25;;
81487;SDS011;70897;52.464;13.428;2024-02-26T12:36:04;9.80;;;7.15;;
81487;SDS011;70897;52.464;13.428;2024-02-26T12:38:50;17.08;;;11.48;;
81487;SDS011;70897;52.464;13.428;2024-02-26T12:41:37;9.40;;;6.00;;
81487;SDS011;70897;52.464;13.428;2024-02-26T12:44:25;12.02;;;5.50;;
81487;SDS011;70897;52.464;13.428;2024-02-26T12:47:10;8.93;;;6.15;;
81487;SDS011;70897;52.464;13.428;2024-02-26T12:50:00;10.70;;;5.95;;
81487;SDS011;70897;52.464;13.428;2024-02-26T12:52:46;7.32;;;5.32;;
81487;SDS011;70897;52.464;13.428;2024-02-26T12:55:32;11.68;;;6.32;;
81487;SDS011;70897;52.464;13.428;2024-02-26T12:58:19;9.20;;;5.57;;
81487;SDS011;70897;52.464;13.428;2024-02-26T13:01:10;8.52;;;5.40;;
81487;SDS011;70897;52.464;13.428;2024-02-26T13:03:59;8.15;;;5.18;;
81487;SDS011;70897;52.464;13.428;2024-02-26T13:06:50;8.80;;;4.95;;
81487;SDS011;70897;52.464;13.428;2024-02-26T13:09:35;6.70;;;4.65;;
81487;SDS011;70897;52.464;13.428;2024-02-26T13:12:21;8.13;;;4.18;;
81487;SDS011;70897;52.464;13.428;2024-02-26T13:15:06;8.57;;;4.57;;
81487;SDS011;70897;52.464;13.428;2024-02-26T13:17:51;6.93;;;4.50;;
81487;SDS011;70897;52.464;13.428;2024-02-26T13:20:38;8.63;;;4.90;;
81487;SDS011;70897;52.464;13.428;2024-02-26T13:23:24;9.48;;;4.45;;
81487;SDS011;70897;52.464;13.428;2024-02-26T13:26:11;5.68;;;3.72;;
81487;SDS011;70897;52.464;13.428;2024-02-26T13:29:01;7.72;;;3.83;;
81487;SDS011;70897;52.464;13.428;2024-02-26T13:31:47;7.63;;;4.22;;
81487;SDS011;70897;52.464;13.428;2024-02-26T13:34:37;7.45;;;3.97;;
81487;SDS011;70897;52.464;13.428;2024-02-26T13:37:22;7.47;;;4.57;;
81487;SDS011;70897;52.464;13.428;2024-02-26T13:40:08;9.10;;;6.93;;
81487;SDS011;70897;52.464;13.428;2024-02-26T13:42:54;12.95;;;7.50;;
81487;SDS011;70897;52.464;13.428;2024-02-26T13:45:39;11.93;;;6.70;;
81487;SDS011;70897;52.464;13.428;2024-02-26T13:48:24;11.52;;;6.63;;
81487;SDS011;70897;52.464;13.428;2024-02-26T13:51:10;10.90;;;6.82;;
81487;SDS011;70897;52.464;13.428;2024-02-26T13:53:55;11.32;;;7.38;;
81487;SDS011;70897;52.464;13.428;2024-02-26T13:56:40;12.95;;;7.10;;
81487;SDS011;70897;52.464;13.428;2024-02-26T13:59:26;12.23;;;7.80;;
81487;SDS011;70897;52.464;13.428;2024-02-26T14:02:11;10.10;;;7.05;;
81487;SDS011;70897;52.464;13.428;2024-02-26T14:04:56;14.25;;;6.38;;
81487;SDS011;70897;52.464;13.428;2024-02-26T14:07:42;11.38;;;6.75;;
81487;SDS011;70897;52.464;13.428;2024-02-26T14:10:27;11.52;;;8.15;;
81487;SDS011;70897;52.464;13.428;2024-02-26T14:13:13;14.70;;;8.20;;
81487;SDS011;70897;52.464;13.428;2024-02-26T14:15:58;12.63;;;7.22;;
81487;SDS011;70897;52.464;13.428;2024-02-26T14:18:43;11.45;;;7.25;;
81487;SDS011;70897;52.464;13.428;2024-02-26T14:21:29;12.25;;;7.72;;
81487;SDS011;70897;52.464;13.428;2024-02-26T14:24:14;13.63;;;7.50;;
81487;SDS011;70897;52.464;13.428;2024-02-26T14:27:00;12.45;;;7.90;;
81487;SDS011;70897;52.464;13.428;2024-02-26T14:29:45;11.05;;;7.38;;
81487;SDS011;70897;52.464;13.428;2024-02-26T14:32:30;16.30;;;8.02;;
81487;SDS011;70897;52.464;13.428;2024-02-26T14:35:19;11.82;;;7.60;;
81487;SDS011;70897;52.464;13.428;2024-02-26T14:38:04;12.05;;;7.88;;
81487;SDS011;70897;52.464;13.428;2024-02-26T14:40:49;11.55;;;7.43;;
81487;SDS011;70897;52.464;13.428;2024-02-26T14:43:35;13.50;;;7.78;;
81487;SDS011;70897;52.464;13.428;2024-02-26T14:46:20;11.65;;;7.85;;
81487;SDS011;70897;52.464;13.428;2024-02-26T14:49:05;12.25;;;7.13;;
81487;SDS011;70897;52.464;13.428;2024-02-26T14:51:50;11.45;;;7.15;;
81487;SDS011;70897;52.464;13.428;2024-02-26T14:54:35;12.27;;;7.40;;
81487;SDS011;70897;52.464;13.428;2024-02-26T14:57:24;14.07;;;7.72;;
81487;SDS011;70897;52.464;13.428;2024-02-26T15:00:09;11.55;;;7.65;;
81487;SDS011;70897;52.464;13.428;2024-02-26T15:02:54;13.90;;;7.90;;
81487;SDS011;70897;52.464;13.428;2024-02-26T15:05:40;13.48;;;7.82;;
81487;SDS011;70897;52.464;13.428;2024-02-26T15:08:25;12.55;;;8.00;;
81487;SDS011;70897;52.464;13.428;2024-02-26T15:11:10;11.77;;;8.05;;
81487;SDS011;70897;52.464;13.428;2024-02-26T15:13:55;11.40;;;8.27;;
81487;SDS011;70897;52.464;13.428;2024-02-26T15:16:40;12.23;;;7.78;;
81487;SDS011;70897;52.464;13.428;2024-02-26T15:19:26;13.55;;;8.77;;
81487;SDS011;70897;52.464;13.428;2024-02-26T15:22:11;14.88;;;8.73;;
81487;SDS011;70897;52.464;13.428;2024-02-26T15:24:56;16.40;;;11.02;;
81487;SDS011;70897;52.464;13.428;2024-02-26T15:27:41;13.95;;;9.20;;
81487;SDS011;70897;52.464;13.428;2024-02-26T15:30:26;18.67;;;10.40;;
81487;SDS011;70897;52.464;13.428;2024-02-26T15:33:14;14.02;;;8.80;;
81487;SDS011;70897;52.464;13.428;2024-02-26T15:35:59;16.20;;;10.13;;
81487;SDS011;70897;52.464;13.428;2024-02-26T15:38:44;17.35;;;10.73;;
81487;SDS011;70897;52.464;13.428;2024-02-26T15:41:29;21.38;;;11.60;;
81487;SDS011;70897;52.464;13.428;2024-02-26T15:44:14;21.33;;;11.88;;
81487;SDS011;70897;52.464;13.428;2024-02-26T15:46:59;19.70;;;11.32;;
81487;SDS011;70897;52.464;13.428;2024-02-26T15:49:45;19.95;;;12.02;;
81487;SDS011;70897;52.464;13.428;2024-02-26T15:52:30;15.80;;;10.38;;
81487;SDS011;70897;52.464;13.428;2024-02-26T15:55:15;19.00;;;10.07;;
81487;SDS011;70897;52.464;13.428;2024-02-26T15:58:00;16.35;;;10.35;;
81487;SDS011;70897;52.464;13.428;2024-02-26T16:00:45;16.73;;;10.90;;
81487;SDS011;70897;52.464;13.428;2024-02-26T16:03:36;20.73;;;11.38;;